Time;durP1;ratioP1;P1;durP2;ratioP2;P2;SDS_P1;SDS_P2;PMS_P1;PMS_P2;Temp;Humidity;BMP_temperature;BMP_pressure;BME280_temperature;BME280_humidity;BME280_pressure;Samples;Min_cycle;Max_cycle;Signal;HPM_P1;HPM_P2
2022/08/31 00:05:27;;;;;;;13.50;6.75;;;17.30;99.90;;;;;;5009806;28;20117;-70
2022/08/31 00:07:52;;;;;;;12.20;6.78;;;17.40;99.90;;;;;;5006210;28;20113;-70
2022/08/31 00:10:19;;;;;;;11.50;6.60;;;17.50;99.90;;;;;;5009216;28;20029;-70
2022/08/31 00:12:47;;;;;;;16.45;6.85;;;17.50;99.90;;;;;;5009656;28;20042;-73
2022/08/31 00:15:19;;;;;;;12.15;6.97;;;17.50;99.90;;;;;;5009130;28;20048;-70
2022/08/31 00:17:45;;;;;;;15.88;7.13;;;17.60;99.90;;;;;;5008323;28;20030;-69
2022/08/31 00:20:13;;;;;;;11.85;7.20;;;17.60;99.90;;;;;;5008764;28;20030;-71
2022/08/31 00:22:38;;;;;;;12.05;7.10;;;17.60;99.90;;;;;;5012058;28;20037;-70
2022/08/31 00:25:05;;;;;;;11.07;6.65;;;17.60;99.90;;;;;;5009134;28;20030;-69
2022/08/31 00:27:30;;;;;;;11.32;6.88;;;17.60;99.90;;;;;;5025645;28;20038;-70
2022/08/31 00:29:56;;;;;;;12.30;7.22;;;17.60;99.90;;;;;;5028920;28;20037;-76
2022/08/31 00:32:22;;;;;;;13.40;7.25;;;17.60;99.90;;;;;;5011952;28;20412;-71
2022/08/31 00:34:47;;;;;;;11.80;7.00;;;17.50;99.90;;;;;;5010852;28;20108;-70
2022/08/31 00:37:13;;;;;;;11.50;7.15;;;17.50;99.90;;;;;;4996503;28;20040;-70
2022/08/31 00:39:39;;;;;;;12.70;6.85;;;17.50;99.90;;;;;;5009657;28;20033;-70
2022/08/31 00:42:06;;;;;;;14.48;7.28;;;17.50;99.90;;;;;;4988049;28;20038;-69
2022/08/31 00:44:32;;;;;;;11.45;7.15;;;17.50;99.90;;;;;;5007040;28;20034;-71
2022/08/31 00:46:58;;;;;;;12.88;7.68;;;17.40;99.90;;;;;;5009304;28;20076;-76
2022/08/31 00:49:30;;;;;;;13.07;7.18;;;17.40;99.90;;;;;;5008965;28;20030;-70
2022/08/31 00:52:02;;;;;;;19.17;7.05;;;17.40;99.90;;;;;;5008242;28;20040;-71
2022/08/31 00:54:36;;;;;;;11.85;7.00;;;17.40;99.90;;;;;;5007449;28;20130;-70
2022/08/31 00:57:05;;;;;;;12.80;7.32;;;17.40;99.90;;;;;;5009927;28;20061;-70
2022/08/31 00:59:32;;;;;;;15.50;7.33;;;17.40;99.90;;;;;;5018234;28;20063;-70
2022/08/31 01:01:57;;;;;;;11.60;7.00;;;17.40;99.90;;;;;;5010527;28;20030;-75
2022/08/31 01:04:23;;;;;;;15.45;7.63;;;17.40;99.90;;;;;;5008085;28;20053;-69
2022/08/31 01:06:50;;;;;;;13.60;7.30;;;17.40;99.90;;;;;;5012353;28;20044;-69
2022/08/31 01:09:16;;;;;;;11.57;7.38;;;17.40;99.90;;;;;;5009135;28;20073;-72
2022/08/31 01:11:42;;;;;;;11.57;6.90;;;17.40;99.90;;;;;;5009049;28;20448;-70
2022/08/31 01:14:09;;;;;;;11.48;7.50;;;17.50;99.90;;;;;;5006692;28;20029;-70
2022/08/31 01:16:54;;;;;;;12.93;7.53;;;17.40;99.90;;;;;;5009249;28;20050;-71
2022/08/31 01:19:35;;;;;;;13.70;7.70;;;17.50;99.90;;;;;;5007454;28;20269;-70
2022/08/31 01:22:03;;;;;;;16.00;7.57;;;17.50;99.90;;;;;;5011029;28;20030;-75
2022/08/31 01:24:30;;;;;;;11.75;7.10;;;17.40;99.90;;;;;;4995962;28;20372;-70
2022/08/31 01:27:02;;;;;;;13.88;7.47;;;17.40;99.90;;;;;;5016682;28;20052;-70
2022/08/31 01:29:28;;;;;;;12.52;7.80;;;17.40;99.90;;;;;;5008763;28;20034;-71
2022/08/31 01:31:54;;;;;;;16.77;7.57;;;17.50;99.90;;;;;;5004507;28;20033;-69
2022/08/31 01:34:20;;;;;;;15.15;7.85;;;17.40;99.90;;;;;;5008202;28;20283;-69
2022/08/31 01:36:47;;;;;;;11.77;7.22;;;17.40;99.90;;;;;;5007720;28;20040;-72
2022/08/31 01:39:12;;;;;;;13.93;7.70;;;17.40;99.90;;;;;;5007401;28;20065;-70
2022/08/31 01:41:42;;;;;;;13.02;7.78;;;17.30;99.90;;;;;;5005351;28;20421;-70
2022/08/31 01:44:10;;;;;;;11.98;8.13;;;17.30;99.90;;;;;;5008298;28;20030;-71
2022/08/31 01:46:36;;;;;;;17.52;7.80;;;17.30;99.90;;;;;;5006788;28;20650;-71
2022/08/31 01:49:02;;;;;;;13.25;8.05;;;17.30;99.90;;;;;;5009359;28;20030;-75
2022/08/31 01:51:27;;;;;;;15.13;7.50;;;17.30;99.90;;;;;;5002194;28;20121;-69
2022/08/31 01:53:54;;;;;;;16.05;8.13;;;17.20;99.90;;;;;;5011783;28;20108;-70
2022/08/31 01:56:29;;;;;;;16.60;8.25;;;17.20;99.90;;;;;;5008754;28;20029;-72
2022/08/31 01:58:56;;;;;;;12.68;7.90;;;17.20;99.90;;;;;;5012987;28;20029;-71
2022/08/31 02:01:27;;;;;;;13.27;8.18;;;17.20;99.90;;;;;;5008585;28;20079;-70
2022/08/31 02:03:52;;;;;;;12.70;7.75;;;17.20;99.90;;;;;;5008580;28;20588;-71
2022/08/31 02:06:18;;;;;;;14.82;8.15;;;17.30;99.90;;;;;;5002388;28;20100;-71
2022/08/31 02:08:44;;;;;;;12.10;7.95;;;17.30;99.90;;;;;;5009697;28;20101;-69
2022/08/31 02:11:09;;;;;;;12.07;7.80;;;17.30;99.90;;;;;;5007616;28;20053;-70
2022/08/31 02:13:35;;;;;;;14.40;7.75;;;17.30;99.90;;;;;;5008324;28;20038;-71
2022/08/31 02:16:01;;;;;;;13.48;7.78;;;17.30;99.90;;;;;;5007299;28;20117;-75
2022/08/31 02:18:27;;;;;;;12.20;8.40;;;17.30;99.90;;;;;;5005661;28;20042;-70
2022/08/31 02:20:53;;;;;;;14.73;8.27;;;17.30;99.90;;;;;;5007748;28;20152;-70
2022/08/31 02:23:19;;;;;;;21.23;8.27;;;17.30;99.90;;;;;;5011783;28;20056;-70
2022/08/31 02:25:45;;;;;;;16.35;8.60;;;17.20;99.90;;;;;;5018203;28;20622;-70
2022/08/31 02:28:12;;;;;;;16.52;7.93;;;17.30;99.90;;;;;;5012555;28;20032;-69
2022/08/31 02:30:40;;;;;;;14.27;7.72;;;17.30;99.90;;;;;;5006829;28;20026;-70
2022/08/31 02:33:05;;;;;;;17.80;8.57;;;17.30;99.90;;;;;;5007071;28;20489;-74
2022/08/31 02:35:31;;;;;;;13.20;8.27;;;17.30;99.90;;;;;;5008059;28;20137;-68
2022/08/31 02:37:57;;;;;;;14.55;8.13;;;17.30;99.90;;;;;;5009407;28;20037;-70
2022/08/31 02:40:23;;;;;;;14.65;8.43;;;17.20;99.90;;;;;;5009550;28;20030;-70
2022/08/31 02:42:49;;;;;;;14.98;8.48;;;17.20;99.90;;;;;;5008133;28;20068;-68
2022/08/31 02:45:14;;;;;;;16.77;8.75;;;17.10;99.90;;;;;;5007785;28;20038;-70
2022/08/31 02:47:40;;;;;;;14.65;7.88;;;16.90;99.90;;;;;;5006808;28;20093;-71
2022/08/31 02:50:07;;;;;;;15.40;9.00;;;16.90;99.90;;;;;;5008660;28;20488;-75
2022/08/31 02:52:33;;;;;;;22.10;8.48;;;17.00;99.90;;;;;;5009049;28;20105;-73
2022/08/31 02:54:58;;;;;;;13.68;7.97;;;17.00;99.90;;;;;;5009902;28;20528;-70
2022/08/31 02:57:24;;;;;;;15.00;9.20;;;17.00;99.90;;;;;;5007027;28;20053;-67
2022/08/31 02:59:50;;;;;;;15.07;9.50;;;17.00;99.90;;;;;;5010073;28;20038;-72
2022/08/31 03:02:16;;;;;;;16.15;8.93;;;16.80;99.90;;;;;;5008476;28;20112;-71
2022/08/31 03:04:42;;;;;;;15.35;9.38;;;16.60;99.90;;;;;;5011669;28;20049;-70
2022/08/31 03:07:08;;;;;;;18.08;9.95;;;16.50;99.90;;;;;;5017962;28;20036;-76
2022/08/31 03:09:34;;;;;;;17.23;9.50;;;16.50;99.90;;;;;;5010580;28;20477;-71
2022/08/31 03:11:59;;;;;;;17.25;10.18;;;16.60;99.90;;;;;;5016758;28;20036;-70
2022/08/31 03:14:25;;;;;;;19.33;9.20;;;16.70;99.90;;;;;;5007119;28;20057;-71
2022/08/31 03:16:52;;;;;;;15.13;9.27;;;16.90;99.90;;;;;;5012194;28;20033;-71
2022/08/31 03:19:18;;;;;;;18.60;9.25;;;16.90;99.90;;;;;;5011446;28;20037;-71
2022/08/31 03:21:45;;;;;;;18.40;9.35;;;16.90;99.90;;;;;;5012289;28;20385;-71
2022/08/31 03:24:13;;;;;;;17.05;8.80;;;16.70;99.90;;;;;;5007383;28;20444;-71
2022/08/31 03:26:39;;;;;;;16.45;9.20;;;16.60;99.90;;;;;;5008241;28;20025;-71
2022/08/31 03:29:05;;;;;;;18.58;8.80;;;16.60;99.90;;;;;;5012180;28;20053;-69
2022/08/31 03:31:31;;;;;;;20.17;9.15;;;16.60;99.90;;;;;;5008323;28;20428;-71
2022/08/31 03:33:57;;;;;;;16.33;9.18;;;16.70;99.90;;;;;;5019628;28;20085;-73
2022/08/31 03:36:23;;;;;;;21.63;9.75;;;16.70;99.90;;;;;;5025765;28;20025;-72
2022/08/31 03:38:49;;;;;;;18.58;9.65;;;16.70;99.90;;;;;;5008321;28;20034;-77
2022/08/31 03:41:21;;;;;;;14.32;9.05;;;16.70;99.90;;;;;;5024452;28;20140;-72
2022/08/31 03:43:47;;;;;;;16.48;9.15;;;16.80;99.90;;;;;;5006018;28;20472;-69
2022/08/31 03:46:12;;;;;;;15.40;8.82;;;16.80;99.90;;;;;;5011277;28;20079;-71
2022/08/31 03:48:38;;;;;;;15.77;8.68;;;16.80;99.90;;;;;;5012698;28;20029;-70
2022/08/31 03:51:04;;;;;;;14.48;8.88;;;16.90;99.90;;;;;;5012279;28;20392;-71
2022/08/31 03:53:30;;;;;;;16.02;8.57;;;16.90;99.90;;;;;;5019276;28;20611;-71
2022/08/31 03:56:00;;;;;;;15.77;9.60;;;16.90;99.90;;;;;;5017273;28;20040;-73
2022/08/31 03:58:28;;;;;;;15.27;9.02;;;16.80;99.90;;;;;;5006533;28;20080;-71
2022/08/31 04:00:54;;;;;;;16.67;8.85;;;16.80;99.90;;;;;;4994528;28;20077;-69
2022/08/31 04:03:19;;;;;;;20.60;9.57;;;16.70;99.90;;;;;;5005008;28;20038;-67
2022/08/31 04:05:45;;;;;;;15.18;9.00;;;16.70;99.90;;;;;;5009874;28;20029;-72
2022/08/31 04:08:12;;;;;;;17.80;9.55;;;16.60;99.90;;;;;;5005588;28;20033;-77
2022/08/31 04:10:39;;;;;;;14.80;9.70;;;16.70;99.90;;;;;;5007291;28;20050;-72
2022/08/31 04:13:05;;;;;;;17.35;9.25;;;16.70;99.90;;;;;;5006710;28;20765;-73
2022/08/31 04:15:31;;;;;;;15.02;9.60;;;16.70;99.90;;;;;;5002578;28;20133;-69
2022/08/31 04:17:57;;;;;;;19.27;10.25;;;16.80;99.90;;;;;;5008412;28;20380;-70
2022/08/31 04:20:22;;;;;;;15.05;9.07;;;16.80;99.90;;;;;;5003875;28;20080;-69
2022/08/31 04:22:48;;;;;;;17.60;10.35;;;16.80;99.90;;;;;;5007518;28;20072;-69
2022/08/31 04:25:14;;;;;;;15.77;9.50;;;16.70;99.90;;;;;;5005536;28;20029;-66
2022/08/31 04:27:39;;;;;;;15.98;9.38;;;16.60;99.90;;;;;;5006715;28;20026;-68
2022/08/31 04:30:07;;;;;;;19.73;9.93;;;16.60;99.90;;;;;;5007645;28;20045;-70
2022/08/31 04:32:33;;;;;;;14.68;9.68;;;16.50;99.90;;;;;;5001541;28;20049;-68
2022/08/31 04:35:00;;;;;;;16.38;9.55;;;16.50;99.90;;;;;;5005150;28;20554;-68
2022/08/31 04:37:26;;;;;;;17.75;9.43;;;16.60;99.90;;;;;;5019997;28;20157;-72
2022/08/31 04:39:54;;;;;;;16.85;9.88;;;16.60;99.90;;;;;;5007434;28;20033;-70
2022/08/31 04:42:20;;;;;;;15.50;9.80;;;16.60;99.90;;;;;;5006639;28;20033;-68
2022/08/31 04:44:45;;;;;;;16.98;9.32;;;16.60;99.90;;;;;;5009304;28;20065;-69
2022/08/31 04:47:11;;;;;;;24.27;9.80;;;16.60;99.90;;;;;;5009069;28;20076;-76
2022/08/31 04:49:37;;;;;;;21.00;9.40;;;16.60;99.90;;;;;;4992177;28;20124;-68
2022/08/31 04:52:03;;;;;;;16.13;9.55;;;16.60;99.90;;;;;;5004787;28;20037;-76
2022/08/31 04:54:28;;;;;;;15.48;9.57;;;16.60;99.90;;;;;;5006109;28;20555;-67
2022/08/31 04:56:54;;;;;;;17.42;9.32;;;16.60;99.90;;;;;;5008734;28;20061;-65
2022/08/31 04:59:24;;;;;;;16.85;9.80;;;16.70;99.90;;;;;;5008033;28;20117;-70
2022/08/31 05:01:50;;;;;;;21.48;10.23;;;16.70;99.90;;;;;;5006394;28;20061;-69
2022/08/31 05:04:16;;;;;;;15.27;9.73;;;16.70;99.90;;;;;;5006914;28;20067;-69
2022/08/31 05:06:44;;;;;;;14.85;9.60;;;16.80;99.90;;;;;;5005076;28;20034;-70
2022/08/31 05:09:13;;;;;;;22.58;10.02;;;16.80;99.90;;;;;;5008950;28;20045;-74
2022/08/31 05:11:39;;;;;;;18.30;10.02;;;16.80;99.90;;;;;;5008124;28;20032;-67
2022/08/31 05:14:07;;;;;;;15.13;9.77;;;16.80;99.90;;;;;;5012190;28;20042;-69
2022/08/31 05:16:33;;;;;;;18.40;9.63;;;16.80;99.90;;;;;;5006099;28;20053;-68
2022/08/31 05:19:00;;;;;;;20.88;10.23;;;16.80;99.90;;;;;;5006511;28;20034;-67
2022/08/31 05:21:29;;;;;;;18.15;9.85;;;16.80;99.90;;;;;;5008269;28;20084;-74
2022/08/31 05:23:56;;;;;;;17.15;9.27;;;16.80;99.90;;;;;;5006112;28;20033;-69
2022/08/31 05:26:24;;;;;;;15.55;9.68;;;16.80;99.90;;;;;;5006489;28;20439;-68
2022/08/31 05:28:50;;;;;;;14.70;9.30;;;16.80;99.90;;;;;;5005832;28;20026;-72
2022/08/31 05:31:16;;;;;;;16.20;10.02;;;16.60;99.90;;;;;;5007483;28;20603;-72
2022/08/31 05:33:43;;;;;;;15.40;9.40;;;16.50;99.90;;;;;;5014621;28;20061;-69
2022/08/31 05:36:10;;;;;;;16.58;9.50;;;16.50;99.90;;;;;;4990499;28;20421;-67
2022/08/31 05:38:36;;;;;;;18.92;10.15;;;16.50;99.90;;;;;;5007981;28;20597;-72
2022/08/31 05:41:04;;;;;;;23.13;10.43;;;16.40;99.90;;;;;;5009277;28;20399;-70
2022/08/31 05:43:31;;;;;;;14.52;9.35;;;16.40;99.90;;;;;;5007122;28;20121;-72
2022/08/31 05:45:57;;;;;;;19.10;10.00;;;16.30;99.90;;;;;;5003733;28;20033;-69
2022/08/31 05:48:23;;;;;;;17.20;10.00;;;16.30;99.90;;;;;;5015200;28;20030;-73
2022/08/31 05:50:49;;;;;;;18.77;10.02;;;16.30;99.90;;;;;;5022708;28;20142;-69
2022/08/31 05:53:15;;;;;;;18.13;9.95;;;16.30;99.90;;;;;;5005839;28;20050;-73
2022/08/31 05:55:41;;;;;;;17.00;9.55;;;16.30;99.90;;;;;;5005633;28;20034;-68
2022/08/31 05:58:07;;;;;;;17.40;10.18;;;16.30;99.90;;;;;;5006899;28;20030;-72
2022/08/31 06:00:34;;;;;;;17.27;10.25;;;16.30;99.90;;;;;;4993838;28;20554;-71
2022/08/31 06:02:59;;;;;;;14.98;9.30;;;16.40;99.90;;;;;;5027449;28;20033;-70
2022/08/31 06:05:25;;;;;;;19.60;10.02;;;16.50;99.90;;;;;;5018298;28;20087;-70
2022/08/31 06:07:51;;;;;;;18.42;10.25;;;16.50;99.90;;;;;;5008246;28;20493;-70
2022/08/31 06:10:17;;;;;;;22.98;10.60;;;16.60;99.90;;;;;;5012109;28;20103;-76
2022/08/31 06:12:45;;;;;;;18.13;9.68;;;16.60;99.90;;;;;;5007981;28;20064;-73
2022/08/31 06:15:11;;;;;;;15.32;9.35;;;16.60;99.90;;;;;;5007657;28;20262;-71
2022/08/31 06:17:36;;;;;;;14.75;9.30;;;16.40;99.90;;;;;;4988996;28;20165;-69
2022/08/31 06:20:06;;;;;;;19.23;10.23;;;16.50;99.90;;;;;;5007810;28;20461;-69
2022/08/31 06:22:35;;;;;;;15.73;9.55;;;16.40;99.90;;;;;;5007461;28;20445;-71
2022/08/31 06:25:03;;;;;;;19.40;10.25;;;16.60;99.90;;;;;;5009742;28;20065;-68
2022/08/31 06:27:29;;;;;;;15.32;10.23;;;16.60;99.90;;;;;;5007356;28;20041;-68
2022/08/31 06:29:56;;;;;;;18.83;10.18;;;16.60;99.90;;;;;;5008286;28;20034;-68
2022/08/31 06:32:22;;;;;;;17.63;10.40;;;16.70;99.90;;;;;;5006707;28;20140;-69
2022/08/31 06:34:48;;;;;;;18.55;9.80;;;16.70;99.90;;;;;;5019111;28;20132;-68
2022/08/31 06:37:13;;;;;;;15.93;9.95;;;16.80;99.90;;;;;;5010285;28;20030;-70
2022/08/31 06:39:39;;;;;;;17.75;10.65;;;16.90;99.90;;;;;;5013732;28;20022;-70
2022/08/31 06:42:05;;;;;;;18.40;10.73;;;16.90;99.90;;;;;;5012952;28;20030;-69
2022/08/31 06:44:31;;;;;;;13.55;9.75;;;17.00;99.90;;;;;;4990533;28;20400;-70
2022/08/31 06:46:57;;;;;;;18.67;10.95;;;17.00;99.90;;;;;;5024432;28;20030;-70
2022/08/31 06:49:23;;;;;;;18.90;11.15;;;17.10;99.90;;;;;;5014624;28;20468;-69
2022/08/31 06:51:49;;;;;;;15.40;10.10;;;17.10;99.90;;;;;;5013927;28;20168;-70
2022/08/31 06:54:18;;;;;;;17.80;10.98;;;17.10;99.90;;;;;;5010217;28;20534;-70
2022/08/31 06:56:44;;;;;;;16.90;9.93;;;17.20;99.90;;;;;;5010281;28;20481;-66
2022/08/31 06:59:10;;;;;;;15.43;10.23;;;17.20;99.90;;;;;;4998811;28;20456;-69
2022/08/31 07:01:38;;;;;;;18.92;10.23;;;17.20;99.90;;;;;;5010578;28;20853;-70
2022/08/31 07:04:06;;;;;;;16.95;10.45;;;17.30;99.90;;;;;;5013246;28;20054;-71
2022/08/31 07:06:39;;;;;;;16.98;10.27;;;17.30;99.90;;;;;;5006511;28;20064;-69
2022/08/31 07:09:09;;;;;;;18.95;11.10;;;17.40;99.90;;;;;;5010829;28;20041;-71
2022/08/31 07:11:40;;;;;;;20.77;10.75;;;17.50;99.90;;;;;;5007829;28;20034;-71
2022/08/31 07:14:08;;;;;;;20.10;10.82;;;17.60;99.90;;;;;;5007349;28;20103;-71
2022/08/31 07:16:34;;;;;;;19.52;10.38;;;17.70;99.90;;;;;;5010226;28;20034;-70
2022/08/31 07:19:02;;;;;;;25.60;10.43;;;17.70;99.90;;;;;;5018563;28;20388;-72
2022/08/31 07:21:32;;;;;;;16.83;10.77;;;17.70;99.90;;;;;;4993465;28;20030;-70
2022/08/31 07:24:00;;;;;;;18.65;10.45;;;17.70;99.90;;;;;;5008594;28;20034;-69
2022/08/31 07:26:30;;;;;;;19.63;10.65;;;17.60;99.90;;;;;;5012766;28;20034;-74
2022/08/31 07:28:57;;;;;;;19.27;10.50;;;17.50;99.90;;;;;;5017268;28;20029;-73
2022/08/31 07:31:26;;;;;;;20.13;10.95;;;17.50;99.90;;;;;;4986452;28;20453;-77
2022/08/31 07:33:54;;;;;;;18.42;10.65;;;17.50;99.90;;;;;;5017088;28;20597;-70
2022/08/31 07:36:21;;;;;;;18.40;11.20;;;17.40;99.90;;;;;;5013355;28;20141;-76
2022/08/31 07:42:08;;;;;;;24.90;11.30;;;17.30;99.90;;;;;;5007031;28;20045;-71
2022/08/31 07:44:22;;;;;;;17.40;10.65;;;17.40;99.90;;;;;;5006547;28;20469;-78
2022/08/31 07:46:48;;;;;;;21.60;11.70;;;17.40;99.90;;;;;;5009753;28;20041;-70
2022/08/31 07:49:15;;;;;;;18.15;11.13;;;17.30;99.90;;;;;;5010084;28;20503;-65
2022/08/31 07:51:45;;;;;;;19.05;11.02;;;17.30;99.90;;;;;;5007697;28;20684;-68
2022/08/31 07:54:12;;;;;;;23.92;11.05;;;17.40;99.90;;;;;;5012547;28;20499;-69
2022/08/31 07:56:41;;;;;;;18.48;11.40;;;17.40;99.90;;;;;;5019865;28;20025;-69
2022/08/31 07:59:08;;;;;;;16.08;10.85;;;17.40;99.90;;;;;;5016919;28;20034;-69
2022/08/31 08:01:36;;;;;;;22.52;11.75;;;17.50;99.90;;;;;;5007008;28;20025;-68
2022/08/31 08:04:02;;;;;;;18.85;10.93;;;17.60;99.90;;;;;;5002680;28;20038;-69
2022/08/31 08:06:29;;;;;;;17.90;10.43;;;17.60;99.90;;;;;;5017272;28;20092;-70
2022/08/31 08:09:06;;;;;;;19.85;11.13;;;17.70;99.90;;;;;;5022904;28;20034;-72
2022/08/31 08:11:35;;;;;;;18.23;10.38;;;17.80;99.90;;;;;;5009139;28;20029;-68
2022/08/31 08:14:05;;;;;;;15.85;10.27;;;17.90;99.90;;;;;;5000491;28;20092;-69
2022/08/31 08:16:31;;;;;;;20.35;11.05;;;18.00;99.90;;;;;;4999394;28;20036;-70
2022/08/31 08:18:57;;;;;;;20.77;10.57;;;18.10;99.90;;;;;;5013071;28;20046;-68
2022/08/31 08:21:23;;;;;;;17.77;10.65;;;18.20;99.90;;;;;;5004316;28;20028;-75
2022/08/31 08:23:49;;;;;;;18.05;10.73;;;18.20;99.90;;;;;;5019339;28;20033;-69
2022/08/31 08:26:15;;;;;;;17.05;10.65;;;18.30;99.90;;;;;;5030986;28;20029;-70
2022/08/31 08:28:40;;;;;;;19.90;10.50;;;18.30;99.90;;;;;;5017110;28;20061;-70
2022/08/31 08:31:11;;;;;;;20.65;10.43;;;18.30;99.90;;;;;;5007772;28;20143;-72
2022/08/31 08:33:37;;;;;;;18.02;10.27;;;18.30;99.90;;;;;;5005865;28;20050;-71
2022/08/31 08:36:06;;;;;;;23.50;11.32;;;18.30;99.90;;;;;;4991760;28;20121;-70
2022/08/31 08:38:32;;;;;;;16.23;10.25;;;18.30;99.90;;;;;;5009417;28;20034;-71
2022/08/31 08:41:00;;;;;;;16.05;9.95;;;18.20;99.90;;;;;;5011290;28;20049;-70
2022/08/31 08:43:35;;;;;;;19.83;10.80;;;18.20;99.90;;;;;;5022064;28;20037;-78
2022/08/31 08:46:03;;;;;;;20.17;10.38;;;18.20;99.90;;;;;;5017874;28;20026;-67
2022/08/31 08:48:35;;;;;;;22.10;11.07;;;18.40;99.90;;;;;;5006295;28;20038;-69
2022/08/31 08:51:03;;;;;;;17.67;10.88;;;18.40;99.90;;;;;;5011505;28;20033;-70
2022/08/31 08:53:30;;;;;;;18.98;11.20;;;18.50;99.90;;;;;;5018506;28;20064;-70
2022/08/31 08:55:56;;;;;;;19.75;10.73;;;18.50;99.90;;;;;;5027946;28;20037;-70
2022/08/31 08:58:24;;;;;;;15.52;10.18;;;18.40;99.90;;;;;;5012550;28;20421;-70
2022/08/31 09:00:52;;;;;;;16.45;9.95;;;18.40;99.90;;;;;;5005840;28;20108;-68
2022/08/31 09:03:32;;;;;;;17.05;10.70;;;18.50;99.90;;;;;;5008113;28;20037;-68
2022/08/31 09:06:08;;;;;;;20.52;11.48;;;18.60;99.90;;;;;;5004109;28;20045;-71
2022/08/31 09:08:49;;;;;;;20.60;10.70;;;18.70;99.90;;;;;;5007768;28;20369;-70
2022/08/31 09:11:48;;;;;;;15.82;9.55;;;18.80;99.90;;;;;;5012799;28;20132;-70
2022/08/31 09:14:23;;;;;;;21.30;10.45;;;18.80;99.90;;;;;;4997235;28;20049;-67
2022/08/31 09:17:00;;;;;;;16.67;9.02;;;18.80;99.90;;;;;;5011863;28;20043;-69
2022/08/31 09:19:26;;;;;;;20.00;10.23;;;18.90;99.90;;;;;;5007449;28;20083;-77
2022/08/31 09:21:55;;;;;;;20.05;10.20;;;18.90;99.90;;;;;;5007700;28;20396;-67
2022/08/31 09:24:26;;;;;;;15.85;9.95;;;19.00;99.90;;;;;;5009965;28;20030;-69
2022/08/31 09:26:54;;;;;;;17.23;9.80;;;19.00;99.90;;;;;;5008220;28;20026;-68
2022/08/31 09:29:26;;;;;;;14.23;10.13;;;19.00;99.90;;;;;;5009270;28;20029;-71
2022/08/31 09:32:16;;;;;;;23.25;9.55;;;19.10;99.90;;;;;;5006704;28;20057;-67
2022/08/31 09:35:00;;;;;;;16.70;10.77;;;19.20;99.90;;;;;;5005004;28;20045;-72
2022/08/31 09:37:44;;;;;;;16.23;9.77;;;19.10;99.90;;;;;;5005053;28;20034;-80
2022/08/31 09:40:15;;;;;;;16.42;10.35;;;19.10;99.90;;;;;;5005794;28;20184;-71
2022/08/31 09:42:42;;;;;;;16.40;10.40;;;19.10;99.90;;;;;;5008152;28;20029;-75
2022/08/31 09:45:18;;;;;;;15.38;9.82;;;19.10;99.90;;;;;;5010252;28;20029;-71
2022/08/31 09:47:54;;;;;;;17.52;10.38;;;19.30;99.90;;;;;;5008299;28;20030;-70
2022/08/31 09:50:43;;;;;;;19.10;10.90;;;19.30;99.90;;;;;;5006139;28;20034;-74
2022/08/31 09:56:16;;;;;;;20.93;10.20;;;19.40;99.90;;;;;;5008815;28;20064;-68
2022/08/31 09:59:01;;;;;;;18.67;10.63;;;19.40;99.90;;;;;;5005169;28;20038;-70
2022/08/31 10:01:34;;;;;;;18.13;10.23;;;19.40;99.90;;;;;;4998927;28;20037;-76
2022/08/31 10:04:27;;;;;;;19.42;11.00;;;19.40;99.90;;;;;;5002740;28;20069;-74
2022/08/31 10:07:10;;;;;;;23.60;11.18;;;19.40;99.90;;;;;;5012434;28;20026;-70
2022/08/31 10:09:47;;;;;;;17.55;10.63;;;19.50;99.90;;;;;;5007947;28;20042;-73
2022/08/31 10:12:30;;;;;;;18.90;11.43;;;19.50;99.90;;;;;;5017981;28;20130;-71
2022/08/31 10:15:02;;;;;;;16.17;10.35;;;19.50;99.90;;;;;;5013032;28;20056;-74
2022/08/31 10:17:36;;;;;;;17.85;10.93;;;19.50;99.90;;;;;;5011507;28;20037;-78
2022/08/31 10:20:20;;;;;;;22.50;11.07;;;19.50;99.90;;;;;;5015056;28;20455;-68
2022/08/31 10:22:52;;;;;;;17.52;10.68;;;19.60;99.90;;;;;;5012795;28;20060;-74
2022/08/31 10:26:03;;;;;;;19.38;10.68;;;19.60;99.90;;;;;;5011214;28;20120;-70
2022/08/31 10:28:51;;;;;;;20.73;11.50;;;19.60;99.90;;;;;;4964460;28;20552;-76
2022/08/31 10:31:44;;;;;;;19.00;11.50;;;19.60;99.90;;;;;;4964394;28;20146;-71
2022/08/31 10:37:24;;;;;;;22.77;10.05;;;19.60;99.90;;;;;;5011464;28;20072;-65
2022/08/31 10:39:57;;;;;;;16.83;10.60;;;19.70;99.90;;;;;;5023850;28;20048;-69
2022/08/31 10:42:38;;;;;;;21.98;11.32;;;19.80;99.90;;;;;;5030799;28;20029;-68
2022/08/31 10:45:17;;;;;;;21.50;11.82;;;19.70;99.90;;;;;;5025300;28;20064;-70
2022/08/31 10:47:48;;;;;;;23.55;11.73;;;19.60;99.90;;;;;;5023208;28;20476;-67
2022/08/31 10:50:34;;;;;;;21.40;12.20;;;19.60;99.90;;;;;;5028874;28;20078;-68
2022/08/31 10:53:21;;;;;;;24.10;11.18;;;19.80;99.90;;;;;;5007421;28;20483;-68
2022/08/31 10:56:13;;;;;;;19.52;11.20;;;20.00;99.90;;;;;;5000676;28;20056;-70
2022/08/31 10:58:42;;;;;;;17.70;11.05;;;20.20;99.90;;;;;;5024339;28;20034;-69
2022/08/31 11:01:21;;;;;;;16.70;9.88;;;20.50;99.90;;;;;;5010203;28;20029;-69
2022/08/31 11:04:10;;;;;;;16.48;9.93;;;20.80;99.90;;;;;;5009966;28;20038;-71
2022/08/31 11:06:40;;;;;;;17.50;10.80;;;21.20;99.90;;;;;;4996214;28;20026;-71
2022/08/31 11:09:18;;;;;;;17.08;10.85;;;21.60;99.90;;;;;;5009993;28;20029;-71
2022/08/31 11:11:57;;;;;;;16.48;9.98;;;21.50;99.90;;;;;;5009325;28;20550;-68
2022/08/31 11:14:44;;;;;;;20.08;10.25;;;21.70;99.90;;;;;;5011163;28;20544;-69
2022/08/31 11:17:32;;;;;;;21.90;10.90;;;22.20;99.90;;;;;;5010642;28;20033;-70
2022/08/31 11:20:20;;;;;;;20.92;11.63;;;22.50;99.90;;;;;;5011251;28;20038;-68
2022/08/31 11:23:07;;;;;;;18.52;10.68;;;22.40;99.90;;;;;;5010915;28;20057;-73
2022/08/31 11:25:54;;;;;;;27.13;10.88;;;22.00;99.90;;;;;;5020134;28;20030;-75
2022/08/31 11:28:38;;;;;;;19.50;10.60;;;22.00;99.90;;;;;;5022077;28;20384;-73
2022/08/31 11:31:22;;;;;;;21.83;10.52;;;21.80;99.90;;;;;;5019137;28;20037;-77
2022/08/31 11:33:53;;;;;;;26.88;10.90;;;21.80;99.90;;;;;;5007368;28;20053;-70
2022/08/31 11:36:40;;;;;;;22.77;10.63;;;21.60;99.90;;;;;;5011863;28;20028;-68
2022/08/31 11:39:06;;;;;;;19.75;10.88;;;22.00;99.90;;;;;;5025301;28;20126;-69
2022/08/31 11:41:38;;;;;;;18.35;11.55;;;22.30;99.90;;;;;;5027290;28;20419;-70
2022/08/31 11:44:07;;;;;;;15.52;9.52;;;22.50;99.90;;;;;;5015032;28;20054;-69
2022/08/31 11:46:33;;;;;;;15.82;10.38;;;22.70;99.90;;;;;;5004078;28;20030;-72
2022/08/31 11:48:59;;;;;;;19.67;10.13;;;22.90;99.90;;;;;;4993637;28;20053;-67
2022/08/31 11:51:46;;;;;;;18.00;9.88;;;22.80;99.90;;;;;;5020188;28;20037;-70
2022/08/31 11:54:25;;;;;;;23.48;10.52;;;22.50;99.90;;;;;;5020674;28;20149;-67
2022/08/31 11:56:53;;;;;;;13.88;9.80;;;22.10;99.90;;;;;;5030704;28;20025;-67
2022/08/31 11:59:30;;;;;;;19.08;10.45;;;22.20;99.90;;;;;;5015701;28;20112;-66
2022/08/31 12:02:00;;;;;;;21.13;10.68;;;22.30;99.90;;;;;;5008351;28;20038;-71
2022/08/31 12:04:40;;;;;;;20.08;10.13;;;22.30;99.90;;;;;;5011722;28;20038;-69
2022/08/31 12:07:09;;;;;;;17.88;9.60;;;22.50;99.90;;;;;;5009872;28;20045;-72
2022/08/31 12:09:50;;;;;;;21.85;10.13;;;22.30;99.90;;;;;;5008476;28;20084;-75
2022/08/31 12:12:48;;;;;;;22.60;10.90;;;22.20;99.90;;;;;;5029363;28;20161;-72
2022/08/31 12:15:27;;;;;;;15.25;9.82;;;22.20;99.90;;;;;;5012491;28;20041;-76
2022/08/31 12:18:03;;;;;;;20.73;8.90;;;22.20;99.90;;;;;;5016011;28;20033;-70
2022/08/31 12:24:08;;;;;;;15.50;9.27;;;22.70;99.90;;;;;;5008216;28;20073;-69
2022/08/31 12:27:02;;;;;;;23.33;9.10;;;23.00;99.90;;;;;;5018371;28;20037;-76
2022/08/31 12:29:37;;;;;;;13.75;8.32;;;23.50;99.90;;;;;;4998026;28;20469;-71
2022/08/31 12:32:17;;;;;;;15.88;8.73;;;23.50;99.90;;;;;;5005784;28;20050;-69
2022/08/31 12:35:20;;;;;;;17.75;9.23;;;23.40;99.90;;;;;;5014944;28;20095;-67
2022/08/31 12:37:58;;;;;;;14.52;8.25;;;23.10;99.90;;;;;;4996734;28;20041;-70
2022/08/31 12:40:25;;;;;;;13.40;7.03;;;23.00;99.90;;;;;;5006088;28;20045;-67
2022/08/31 12:43:16;;;;;;;11.07;7.05;;;22.90;99.90;;;;;;5008311;28;20034;-69
2022/08/31 12:45:53;;;;;;;9.85;6.68;;;23.20;99.90;;;;;;5009183;28;20516;-69
2022/08/31 12:48:37;;;;;;;11.10;7.18;;;23.70;99.90;;;;;;5008350;28;20439;-67
2022/08/31 12:51:18;;;;;;;9.63;7.13;;;24.20;99.90;;;;;;5028376;28;20029;-67
2022/08/31 12:54:06;;;;;;;12.25;6.68;;;24.20;99.90;;;;;;5028782;28;20137;-69
2022/08/31 12:57:03;;;;;;;9.82;6.20;;;24.10;99.90;;;;;;5009879;28;20441;-69
2022/08/31 12:59:39;;;;;;;13.00;6.75;;;23.90;99.90;;;;;;4991436;28;20054;-71
2022/08/31 13:02:10;;;;;;;12.88;7.32;;;23.80;99.90;;;;;;5007182;28;20029;-73
2022/08/31 13:04:44;;;;;;;11.30;6.70;;;23.60;99.90;;;;;;5003226;28;20507;-70
2022/08/31 13:07:27;;;;;;;14.52;7.00;;;23.30;99.90;;;;;;4981184;28;20030;-68